Time;durP1;ratioP1;P1;durP2;ratioP2;P2;SDS_P1;SDS_P2;PMS_P1;PMS_P2;Temp;Humidity;BMP_temperature;BMP_pressure;BME280_temperature;BME280_humidity;BME280_pressure;Samples;Min_cycle;Max_cycle;Signal;HPM_P1;HPM_P2
2023/12/12 00:01:42;;;;;;;6.60;1.57;;;;;;;;;;5047396;28;20219;-85
2023/12/12 00:04:46;;;;;;;6.33;1.73;;;;;;;;;;5059848;28;20184;-85
2023/12/12 00:07:51;;;;;;;4.70;1.60;;;;;;;;;;5059688;28;20180;-86
2023/12/12 00:10:55;;;;;;;4.40;1.60;;;;;;;;;;5047274;28;20231;-85
2023/12/12 00:13:59;;;;;;;5.33;1.93;;;;;;;;;;5060061;28;20181;-86
2023/12/12 00:17:03;;;;;;;3.53;1.30;;;;;;;;;;5072808;28;20629;-86
2023/12/12 00:20:10;;;;;;;8.20;1.63;;;;;;;;;;5061151;28;20180;-85
2023/12/12 00:23:15;;;;;;;4.90;1.73;;;;;;;;;;5070768;28;20630;-85
2023/12/12 00:26:19;;;;;;;5.67;1.43;;;;;;;;;;5048334;28;20180;-85
2023/12/12 00:29:23;;;;;;;2.83;1.10;;;;;;;;;;5046817;28;20546;-85
2023/12/12 00:32:28;;;;;;;6.67;1.20;;;;;;;;;;5047181;28;20219;-85
2023/12/12 00:35:32;;;;;;;5.40;1.60;;;;;;;;;;5046577;28;20183;-85
2023/12/12 00:38:37;;;;;;;7.57;1.60;;;;;;;;;;5058240;28;20176;-85
2023/12/12 00:41:41;;;;;;;5.63;1.97;;;;;;;;;;5059612;28;20207;-85
2023/12/12 00:44:45;;;;;;;7.63;1.40;;;;;;;;;;5058226;28;20199;-85
2023/12/12 00:47:49;;;;;;;5.63;1.60;;;;;;;;;;5069178;28;20530;-85
2023/12/12 00:50:53;;;;;;;9.87;1.77;;;;;;;;;;5057075;28;20236;-85
2023/12/12 00:53:58;;;;;;;6.13;1.47;;;;;;;;;;5057696;28;20184;-85
2023/12/12 00:57:02;;;;;;;7.03;1.47;;;;;;;;;;5057928;28;20184;-84
2023/12/12 01:00:07;;;;;;;4.50;1.57;;;;;;;;;;5068538;28;20172;-83
2023/12/12 01:03:11;;;;;;;7.47;1.57;;;;;;;;;;5057931;28;20634;-83
2023/12/12 01:06:25;;;;;;;4.53;1.50;;;;;;;;;;5058563;28;20185;-84
2023/12/12 01:09:29;;;;;;;7.57;1.50;;;;;;;;;;5057465;28;20200;-83
2023/12/12 01:12:34;;;;;;;3.03;1.10;;;;;;;;;;5056839;28;20219;-83
2023/12/12 01:15:38;;;;;;;6.13;1.47;;;;;;;;;;5068531;28;20186;-83
2023/12/12 01:18:42;;;;;;;4.03;1.53;;;;;;;;;;5068728;28;20180;-83
2023/12/12 01:21:46;;;;;;;11.37;1.83;;;;;;;;;;5045381;28;20604;-83
2023/12/12 01:24:50;;;;;;;7.47;1.70;;;;;;;;;;5058240;28;20184;-84
2023/12/12 01:27:54;;;;;;;3.77;1.43;;;;;;;;;;5057039;28;20645;-83
2023/12/12 01:30:59;;;;;;;4.60;1.30;;;;;;;;;;5056021;28;20228;-83
2023/12/12 01:34:03;;;;;;;5.73;1.40;;;;;;;;;;5056969;28;20184;-84
2023/12/12 01:37:07;;;;;;;5.73;1.50;;;;;;;;;;5056224;28;20184;-84
2023/12/12 01:40:12;;;;;;;7.57;1.43;;;;;;;;;;5056611;28;20177;-84
2023/12/12 01:43:23;;;;;;;5.10;1.57;;;;;;;;;;5056181;28;20526;-83
2023/12/12 01:46:29;;;;;;;4.87;1.83;;;;;;;;;;5057375;28;20180;-83
2023/12/12 01:49:33;;;;;;;5.43;1.57;;;;;;;;;;5045330;28;20212;-83
2023/12/12 01:52:37;;;;;;;4.70;1.50;;;;;;;;;;5057123;28;20564;-83
2023/12/12 01:55:42;;;;;;;4.17;1.30;;;;;;;;;;5056540;28;20180;-83
2023/12/12 01:58:50;;;;;;;5.00;1.57;;;;;;;;;;5067956;28;20188;-84
2023/12/12 02:01:55;;;;;;;4.03;1.40;;;;;;;;;;5044727;28;20212;-84
2023/12/12 02:04:59;;;;;;;3.10;1.27;;;;;;;;;;5056840;28;20188;-84
2023/12/12 02:08:03;;;;;;;3.20;1.30;;;;;;;;;;5056923;28;20188;-83
2023/12/12 02:11:08;;;;;;;1.90;1.10;;;;;;;;;;5044356;28;20232;-83
2023/12/12 02:14:12;;;;;;;6.43;1.57;;;;;;;;;;5057046;28;20180;-83
2023/12/12 02:17:16;;;;;;;6.80;1.37;;;;;;;;;;5068391;28;20626;-83
2023/12/12 02:20:20;;;;;;;2.57;1.20;;;;;;;;;;5034231;28;20180;-84
2023/12/12 02:23:25;;;;;;;1.67;1.10;;;;;;;;;;5070996;28;20180;-85
2023/12/12 02:26:29;;;;;;;5.40;1.07;;;;;;;;;;5047443;28;20180;-85
2023/12/12 02:29:34;;;;;;;4.03;1.10;;;;;;;;;;5047235;28;20179;-84
2023/12/12 02:32:38;;;;;;;6.93;1.50;;;;;;;;;;5080861;28;20224;-84
2023/12/12 02:35:43;;;;;;;4.13;1.10;;;;;;;;;;5057592;28;20180;-85
2023/12/12 02:38:46;;;;;;;4.33;1.43;;;;;;;;;;5071070;28;20184;-85
2023/12/12 02:41:50;;;;;;;4.77;1.30;;;;;;;;;;5061237;28;20553;-83
2023/12/12 02:44:58;;;;;;;3.17;1.30;;;;;;;;;;5061136;28;20668;-83
2023/12/12 02:48:02;;;;;;;7.37;1.30;;;;;;;;;;5072397;28;20540;-83
2023/12/12 02:51:06;;;;;;;5.43;1.43;;;;;;;;;;5048814;28;20231;-83
2023/12/12 02:54:10;;;;;;;6.87;1.53;;;;;;;;;;5071694;28;20510;-84
2023/12/12 02:57:14;;;;;;;4.13;1.97;;;;;;;;;;5048810;28;20518;-84
2023/12/12 03:00:19;;;;;;;2.37;1.20;;;;;;;;;;5061164;28;20184;-85
2023/12/12 03:03:23;;;;;;;7.40;1.47;;;;;;;;;;5060152;28;20180;-83
2023/12/12 03:06:27;;;;;;;10.00;1.47;;;;;;;;;;5048461;28;20184;-84
2023/12/12 03:09:31;;;;;;;3.83;1.40;;;;;;;;;;5060153;28;20180;-85
2023/12/12 03:12:35;;;;;;;3.73;1.10;;;;;;;;;;5058978;28;20573;-84
2023/12/12 03:15:39;;;;;;;3.60;1.00;;;;;;;;;;5059436;28;20180;-83
2023/12/12 03:18:43;;;;;;;5.23;1.13;;;;;;;;;;5060604;28;20181;-84
2023/12/12 03:21:49;;;;;;;10.43;1.53;;;;;;;;;;5048278;28;20212;-83
2023/12/12 03:24:53;;;;;;;2.63;1.20;;;;;;;;;;5059618;28;20184;-84
2023/12/12 03:27:58;;;;;;;6.27;1.40;;;;;;;;;;5059422;28;20180;-84
2023/12/12 03:31:05;;;;;;;4.20;1.20;;;;;;;;;;5059144;28;20231;-83
2023/12/12 03:34:09;;;;;;;3.67;1.07;;;;;;;;;;5082965;28;20189;-83
2023/12/12 03:37:15;;;;;;;7.57;1.40;;;;;;;;;;5059598;28;20188;-84
2023/12/12 03:40:20;;;;;;;4.27;1.30;;;;;;;;;;5059134;28;20173;-83
2023/12/12 03:43:24;;;;;;;8.40;1.30;;;;;;;;;;5059411;28;20184;-83
2023/12/12 03:46:28;;;;;;;3.30;1.20;;;;;;;;;;5059594;28;20196;-84
2023/12/12 03:49:32;;;;;;;2.83;1.20;;;;;;;;;;5058388;28;20188;-84
2023/12/12 03:52:39;;;;;;;5.23;2.10;;;;;;;;;;5059330;28;20212;-83
2023/12/12 03:55:43;;;;;;;3.73;1.10;;;;;;;;;;5082080;28;20610;-83
2023/12/12 03:58:47;;;;;;;3.83;1.27;;;;;;;;;;5059174;28;20184;-83
2023/12/12 04:01:52;;;;;;;3.17;1.10;;;;;;;;;;5059174;28;20211;-83
2023/12/12 04:04:56;;;;;;;6.03;1.60;;;;;;;;;;5069869;28;20184;-83
2023/12/12 04:08:00;;;;;;;4.13;1.07;;;;;;;;;;5058977;28;20180;-83
2023/12/12 04:11:05;;;;;;;4.87;1.27;;;;;;;;;;5057982;28;20227;-84
2023/12/12 04:14:09;;;;;;;3.43;1.30;;;;;;;;;;5058304;28;20180;-83
2023/12/12 04:17:13;;;;;;;3.33;1.33;;;;;;;;;;5059129;28;20180;-83
2023/12/12 04:20:17;;;;;;;2.60;1.20;;;;;;;;;;5058123;28;20172;-83
2023/12/12 04:23:21;;;;;;;3.67;1.73;;;;;;;;;;5058091;28;20621;-84
2023/12/12 04:26:29;;;;;;;2.53;1.00;;;;;;;;;;5058805;28;20172;-84
2023/12/12 04:29:33;;;;;;;2.43;1.30;;;;;;;;;;5057586;28;20180;-83
2023/12/12 04:32:37;;;;;;;3.63;1.50;;;;;;;;;;5073130;28;20208;-85
2023/12/12 04:35:41;;;;;;;2.83;1.40;;;;;;;;;;5061768;28;20180;-84
2023/12/12 04:38:45;;;;;;;3.30;1.50;;;;;;;;;;5061136;28;20180;-84
2023/12/12 04:41:50;;;;;;;4.00;1.67;;;;;;;;;;5035727;28;20216;-83
2023/12/12 04:44:54;;;;;;;1.77;1.00;;;;;;;;;;5058067;28;20211;-84
2023/12/12 04:47:58;;;;;;;4.67;1.30;;;;;;;;;;5058001;28;20625;-83
2023/12/12 04:51:03;;;;;;;4.47;1.13;;;;;;;;;;5058038;28;20227;-85
2023/12/12 04:54:06;;;;;;;2.37;1.13;;;;;;;;;;5069576;28;20184;-83
2023/12/12 04:57:11;;;;;;;4.47;1.37;;;;;;;;;;5057275;28;20180;-84
2023/12/12 05:00:15;;;;;;;1.80;1.20;;;;;;;;;;5056469;28;20580;-83
2023/12/12 05:03:19;;;;;;;3.03;1.40;;;;;;;;;;5058259;28;20199;-85
2023/12/12 05:06:23;;;;;;;4.20;1.20;;;;;;;;;;5045376;28;20184;-83
2023/12/12 05:09:27;;;;;;;2.60;1.20;;;;;;;;;;5045874;28;20184;-83
2023/12/12 05:12:31;;;;;;;4.63;1.40;;;;;;;;;;5057183;28;20207;-84
2023/12/12 05:15:36;;;;;;;3.57;1.13;;;;;;;;;;5056643;28;20177;-83
2023/12/12 05:18:41;;;;;;;5.23;1.47;;;;;;;;;;5057485;28;20180;-83
2023/12/12 05:21:45;;;;;;;1.67;1.10;;;;;;;;;;5056166;28;20216;-84
2023/12/12 05:24:49;;;;;;;1.90;1.20;;;;;;;;;;5056422;28;20648;-83
2023/12/12 05:27:53;;;;;;;3.57;1.20;;;;;;;;;;5044924;28;20180;-84
2023/12/12 05:30:58;;;;;;;4.30;1.37;;;;;;;;;;5044591;28;20231;-83
2023/12/12 05:34:02;;;;;;;3.30;1.20;;;;;;;;;;5055782;28;20184;-83
2023/12/12 05:37:08;;;;;;;2.53;1.50;;;;;;;;;;5056751;28;20176;-83
2023/12/12 05:40:14;;;;;;;2.03;1.00;;;;;;;;;;5044514;28;20182;-84
2023/12/12 05:43:19;;;;;;;6.37;1.43;;;;;;;;;;5043971;28;20545;-83
2023/12/12 05:46:23;;;;;;;3.27;1.10;;;;;;;;;;5056763;28;20176;-83
2023/12/12 05:49:28;;;;;;;2.70;1.33;;;;;;;;;;5044456;28;20184;-84
2023/12/12 05:52:32;;;;;;;2.70;1.30;;;;;;;;;;5043778;28;20227;-83
2023/12/12 05:55:36;;;;;;;1.57;1.03;;;;;;;;;;5044006;28;20176;-83
2023/12/12 05:58:41;;;;;;;3.60;1.40;;;;;;;;;;5055510;28;20192;-83
2023/12/12 06:01:45;;;;;;;2.67;1.30;;;;;;;;;;5054995;28;20212;-84
2023/12/12 06:04:49;;;;;;;2.10;1.40;;;;;;;;;;5034503;28;20203;-80
2023/12/12 06:07:53;;;;;;;4.73;3.17;;;;;;;;;;5057654;28;20629;-84
2023/12/12 06:10:57;;;;;;;11.57;6.70;;;;;;;;;;5055653;28;20223;-83
2023/12/12 06:14:03;;;;;;;7.87;4.23;;;;;;;;;;5054710;28;20180;-83
2023/12/12 06:17:07;;;;;;;4.57;2.70;;;;;;;;;;5066792;28;20192;-83
2023/12/12 06:20:13;;;;;;;3.43;2.07;;;;;;;;;;5055939;28;20184;-84
2023/12/12 06:23:17;;;;;;;4.67;2.00;;;;;;;;;;5055952;28;20180;-83
2023/12/12 06:26:21;;;;;;;4.67;3.30;;;;;;;;;;5055345;28;20176;-83
2023/12/12 06:29:25;;;;;;;7.67;4.10;;;;;;;;;;5054813;28;20176;-83
2023/12/12 06:32:29;;;;;;;5.13;2.40;;;;;;;;;;5055768;28;20219;-84
2023/12/12 06:35:34;;;;;;;4.97;2.50;;;;;;;;;;5043400;28;20541;-83
2023/12/12 06:38:38;;;;;;;3.17;2.10;;;;;;;;;;5055856;28;20633;-84
2023/12/12 06:41:42;;;;;;;2.53;1.57;;;;;;;;;;5059902;28;20676;-85
2023/12/12 06:44:47;;;;;;;2.30;1.30;;;;;;;;;;5068294;28;20210;-85
2023/12/12 06:47:51;;;;;;;2.83;1.60;;;;;;;;;;5056046;28;20192;-85
2023/12/12 06:50:55;;;;;;;4.30;1.80;;;;;;;;;;5067132;28;20231;-83
2023/12/12 06:54:00;;;;;;;4.90;1.70;;;;;;;;;;5067974;28;20188;-83
2023/12/12 06:57:04;;;;;;;4.87;1.63;;;;;;;;;;5057839;28;20176;-86
2023/12/12 07:00:09;;;;;;;1.80;1.30;;;;;;;;;;5034782;28;20178;-85
2023/12/12 07:03:13;;;;;;;2.97;1.10;;;;;;;;;;5045557;28;20181;-86
2023/12/12 07:06:18;;;;;;;1.90;1.50;;;;;;;;;;5034234;28;20207;-85
2023/12/12 07:09:22;;;;;;;2.00;1.47;;;;;;;;;;5057371;28;20188;-86
2023/12/12 07:12:27;;;;;;;1.47;1.33;;;;;;;;;;5058702;28;20592;-87
2023/12/12 07:15:31;;;;;;;1.43;1.10;;;;;;;;;;5059283;28;20180;-86
2023/12/12 07:18:39;;;;;;;2.50;1.40;;;;;;;;;;5059700;28;20188;-86
2023/12/12 07:21:43;;;;;;;2.57;1.40;;;;;;;;;;5060853;28;20216;-86
2023/12/12 07:24:47;;;;;;;2.00;1.13;;;;;;;;;;5063495;28;20618;-87
2023/12/12 07:27:53;;;;;;;1.53;1.10;;;;;;;;;;5054918;28;20180;-86
2023/12/12 07:30:57;;;;;;;1.43;1.10;;;;;;;;;;5054104;28;20216;-86
2023/12/12 07:34:01;;;;;;;1.73;1.33;;;;;;;;;;5064030;28;20180;-86
2023/12/12 07:37:06;;;;;;;1.43;1.07;;;;;;;;;;5063820;28;20176;-86
2023/12/12 07:40:10;;;;;;;1.87;1.23;;;;;;;;;;5051868;28;20189;-86
2023/12/12 07:43:14;;;;;;;3.20;1.43;;;;;;;;;;5053510;28;20172;-86
2023/12/12 07:46:18;;;;;;;2.53;1.20;;;;;;;;;;5050749;28;20180;-86
2023/12/12 07:49:23;;;;;;;2.90;1.10;;;;;;;;;;5064437;28;20180;-87
2023/12/12 07:52:27;;;;;;;3.20;1.30;;;;;;;;;;5064042;28;20228;-86
2023/12/12 07:55:31;;;;;;;1.73;1.10;;;;;;;;;;5076629;28;20176;-86
2023/12/12 07:58:36;;;;;;;4.07;1.10;;;;;;;;;;5040702;28;20184;-86
2023/12/12 08:01:40;;;;;;;1.47;1.20;;;;;;;;;;5051632;28;20211;-86
2023/12/12 08:04:44;;;;;;;1.50;1.20;;;;;;;;;;5054302;28;20542;-87
2023/12/12 08:07:49;;;;;;;3.73;1.20;;;;;;;;;;5063530;28;20180;-87
2023/12/12 08:10:53;;;;;;;1.17;1.00;;;;;;;;;;5063552;28;20216;-87
2023/12/12 08:13:59;;;;;;;1.40;1.00;;;;;;;;;;5038060;28;20172;-86
2023/12/12 08:17:03;;;;;;;3.53;1.20;;;;;;;;;;5037602;28;20188;-86
2023/12/12 08:20:08;;;;;;;1.67;1.00;;;;;;;;;;5062313;28;20613;-86
2023/12/12 08:23:13;;;;;;;1.77;1.00;;;;;;;;;;5049867;28;20178;-85
2023/12/12 08:26:17;;;;;;;1.80;1.00;;;;;;;;;;5058763;28;20544;-86
2023/12/12 08:29:21;;;;;;;1.43;1.10;;;;;;;;;;5059534;28;20622;-86
2023/12/12 08:32:26;;;;;;;1.47;1.00;;;;;;;;;;5059136;28;20227;-85
2023/12/12 08:35:30;;;;;;;3.00;1.27;;;;;;;;;;5034500;28;20188;-85
2023/12/12 08:38:34;;;;;;;2.10;1.10;;;;;;;;;;5059207;28;20184;-86
2023/12/12 08:41:38;;;;;;;1.60;0.80;;;;;;;;;;5046843;28;20215;-86
2023/12/12 08:44:44;;;;;;;1.50;1.10;;;;;;;;;;5057461;28;20203;-86
2023/12/12 08:47:48;;;;;;;1.70;1.13;;;;;;;;;;5046465;28;20188;-86
2023/12/12 08:50:52;;;;;;;7.83;1.60;;;;;;;;;;5045457;28;20568;-87
2023/12/12 08:53:58;;;;;;;4.00;1.30;;;;;;;;;;5046062;28;20178;-85
2023/12/12 08:57:04;;;;;;;3.77;1.53;;;;;;;;;;5046129;28;20180;-86
2023/12/12 09:00:13;;;;;;;4.00;1.53;;;;;;;;;;5045977;28;20649;-85
2023/12/12 09:03:16;;;;;;;2.93;1.37;;;;;;;;;;5069044;28;20185;-86
2023/12/12 09:06:21;;;;;;;2.83;1.10;;;;;;;;;;5059054;28;20180;-86
2023/12/12 09:09:27;;;;;;;2.00;0.90;;;;;;;;;;5035111;28;20180;-86
2023/12/12 09:12:31;;;;;;;2.27;1.20;;;;;;;;;;5057084;28;20220;-86
2023/12/12 09:15:35;;;;;;;2.17;1.10;;;;;;;;;;5069145;28;20176;-86
2023/12/12 09:18:40;;;;;;;1.70;1.30;;;;;;;;;;5070064;28;20176;-85
2023/12/12 09:21:44;;;;;;;2.67;1.23;;;;;;;;;;5069038;28;20216;-86
2023/12/12 09:24:48;;;;;;;2.13;1.20;;;;;;;;;;5069487;28;20537;-86
2023/12/12 09:27:52;;;;;;;4.20;1.43;;;;;;;;;;5057761;28;20180;-86
2023/12/12 09:30:56;;;;;;;3.57;1.50;;;;;;;;;;5069383;28;20219;-86
2023/12/12 09:34:00;;;;;;;1.30;0.90;;;;;;;;;;5045506;28;20180;-86
2023/12/12 09:37:04;;;;;;;1.20;0.87;;;;;;;;;;5046577;28;20519;-86
2023/12/12 09:40:12;;;;;;;2.00;1.00;;;;;;;;;;5056890;28;20641;-86
2023/12/12 09:43:17;;;;;;;1.10;0.90;;;;;;;;;;5068796;28;20176;-86
2023/12/12 09:46:23;;;;;;;1.13;0.90;;;;;;;;;;5068049;28;20196;-86
2023/12/12 09:49:27;;;;;;;1.93;1.20;;;;;;;;;;5057416;28;20634;-85
2023/12/12 09:52:34;;;;;;;1.93;1.23;;;;;;;;;;5045627;28;20689;-86
2023/12/12 09:55:39;;;;;;;1.90;1.57;;;;;;;;;;5044767;28;20183;-85
2023/12/12 09:58:49;;;;;;;5.67;1.50;;;;;;;;;;5033487;28;20184;-86
2023/12/12 10:01:55;;;;;;;1.77;1.30;;;;;;;;;;5056776;28;20690;-85
2023/12/12 10:05:02;;;;;;;2.20;1.50;;;;;;;;;;5045457;28;20180;-85
2023/12/12 10:08:07;;;;;;;2.37;1.30;;;;;;;;;;5056814;28;20181;-87
2023/12/12 10:11:11;;;;;;;3.27;1.90;;;;;;;;;;5068187;28;20211;-87
2023/12/12 10:14:36;;;;;;;3.13;1.47;;;;;;;;;;5068512;28;20172;-86
2023/12/12 10:17:40;;;;;;;2.53;1.50;;;;;;;;;;5067993;28;20537;-87
2023/12/12 10:20:44;;;;;;;1.67;1.13;;;;;;;;;;5045933;28;20215;-87
2023/12/12 10:23:51;;;;;;;3.57;1.20;;;;;;;;;;5057808;28;20184;-87
2023/12/12 10:26:55;;;;;;;2.57;1.50;;;;;;;;;;5058004;28;20183;-87
2023/12/12 10:30:03;;;;;;;2.60;1.70;;;;;;;;;;5057369;28;20180;-87
2023/12/12 10:33:13;;;;;;;2.73;1.70;;;;;;;;;;5057744;28;20204;-87
2023/12/12 10:36:18;;;;;;;1.83;1.50;;;;;;;;;;5045667;28;20540;-87
2023/12/12 10:39:22;;;;;;;2.30;1.83;;;;;;;;;;5056431;28;20172;-86
2023/12/12 10:42:31;;;;;;;4.07;1.57;;;;;;;;;;5068613;28;20207;-86
2023/12/12 10:45:40;;;;;;;2.97;1.70;;;;;;;;;;5057080;28;20180;-86
2023/12/12 10:48:52;;;;;;;2.53;1.67;;;;;;;;;;5057171;28;20184;-86
2023/12/12 10:51:56;;;;;;;2.97;1.83;;;;;;;;;;5069350;28;20211;-86
2023/12/12 10:55:01;;;;;;;4.90;1.80;;;;;;;;;;5045002;28;20180;-86
2023/12/12 10:58:07;;;;;;;3.83;1.53;;;;;;;;;;5033332;28;20184;-86
2023/12/12 11:01:13;;;;;;;3.70;1.87;;;;;;;;;;5050506;28;20216;-86
2023/12/12 11:04:18;;;;;;;3.33;1.63;;;;;;;;;;5061981;28;20176;-86
2023/12/12 11:07:22;;;;;;;4.07;1.97;;;;;;;;;;5049379;28;20181;-86
2023/12/12 11:10:27;;;;;;;1.57;1.33;;;;;;;;;;5038226;28;20188;-86
2023/12/12 11:13:35;;;;;;;2.03;1.40;;;;;;;;;;5060810;28;20212;-87
2023/12/12 11:16:38;;;;;;;5.53;2.00;;;;;;;;;;5060205;28;20622;-86
2023/12/12 11:19:43;;;;;;;3.80;2.03;;;;;;;;;;5047587;28;20652;-87
2023/12/12 11:22:51;;;;;;;3.77;1.73;;;;;;;;;;5071297;28;20204;-87
2023/12/12 11:25:55;;;;;;;2.63;1.63;;;;;;;;;;5061847;28;20196;-86
2023/12/12 11:29:01;;;;;;;4.43;2.00;;;;;;;;;;5057716;28;20176;-87
2023/12/12 11:32:05;;;;;;;1.97;1.40;;;;;;;;;;5058090;28;20213;-86
2023/12/12 11:35:31;;;;;;;3.47;1.60;;;;;;;;;;5046491;28;20180;-86
2023/12/12 11:38:36;;;;;;;2.60;1.27;;;;;;;;;;5047162;28;20541;-86
2023/12/12 11:41:40;;;;;;;2.13;1.43;;;;;;;;;;5035213;28;20216;-86
2023/12/12 11:44:49;;;;;;;4.40;1.30;;;;;;;;;;5057492;28;20199;-87
2023/12/12 11:47:54;;;;;;;3.67;1.70;;;;;;;;;;5046604;28;20185;-86
2023/12/12 11:50:58;;;;;;;3.30;1.70;;;;;;;;;;5081706;28;20220;-86
2023/12/12 11:54:09;;;;;;;2.30;1.60;;;;;;;;;;5046341;28;20212;-86
2023/12/12 11:57:13;;;;;;;2.43;1.50;;;;;;;;;;5046691;28;20181;-86
2023/12/12 12:00:20;;;;;;;4.90;1.30;;;;;;;;;;5057429;28;20180;-86
2023/12/12 12:03:25;;;;;;;2.40;1.67;;;;;;;;;;5060075;28;20176;-86
2023/12/12 12:06:29;;;;;;;5.83;1.87;;;;;;;;;;5047796;28;20177;-86
2023/12/12 12:09:34;;;;;;;5.13;1.73;;;;;;;;;;5049611;28;20641;-85
2023/12/12 12:12:38;;;;;;;2.97;1.50;;;;;;;;;;5073650;28;20228;-86
2023/12/12 12:15:48;;;;;;;2.23;1.30;;;;;;;;;;5037361;28;20183;-86
2023/12/12 12:18:54;;;;;;;3.67;1.50;;;;;;;;;;5070867;28;20176;-87
2023/12/12 12:22:12;;;;;;;2.27;1.50;;;;;;;;;;5059826;28;20220;-86
2023/12/12 12:25:26;;;;;;;3.63;1.53;;;;;;;;;;5061176;28;20180;-86
2023/12/12 12:28:31;;;;;;;4.13;1.80;;;;;;;;;;5081890;28;20172;-86
2023/12/12 12:31:38;;;;;;;2.27;1.60;;;;;;;;;;5050533;28;20220;-86
2023/12/12 12:34:42;;;;;;;2.00;1.30;;;;;;;;;;5062608;28;20208;-86
2023/12/12 12:37:46;;;;;;;3.33;1.83;;;;;;;;;;5062179;28;20176;-86
2023/12/12 12:40:51;;;;;;;3.33;1.90;;;;;;;;;;5073976;28;20207;-87
2023/12/12 12:43:56;;;;;;;2.83;1.60;;;;;;;;;;5058516;28;20204;-85
2023/12/12 12:47:00;;;;;;;3.53;1.53;;;;;;;;;;5055660;28;20185;-86
2023/12/12 12:50:05;;;;;;;2.50;1.60;;;;;;;;;;5084781;28;20634;-86
2023/12/12 12:53:09;;;;;;;5.07;1.80;;;;;;;;;;5061189;28;20208;-86
2023/12/12 12:56:14;;;;;;;2.27;1.57;;;;;;;;;;5076024;22;20232;-81
2023/12/12 12:59:18;;;;;;;3.60;1.70;;;;;;;;;;5060426;28;20176;-81
2023/12/12 13:02:22;;;;;;;3.00;1.90;;;;;;;;;;5058606;28;20180;-82
2023/12/12 13:05:27;;;;;;;2.50;1.50;;;;;;;;;;5058608;28;20211;-81
2023/12/12 13:08:32;;;;;;;2.37;1.57;;;;;;;;;;5058285;28;20184;-82
2023/12/12 13:11:38;;;;;;;2.77;1.53;;;;;;;;;;5057874;28;20176;-82
2023/12/12 13:14:43;;;;;;;5.47;1.70;;;;;;;;;;5057212;28;20200;-81
2023/12/12 13:17:47;;;;;;;2.40;1.70;;;;;;;;;;5057477;28;20177;-81
2023/12/12 13:20:51;;;;;;;2.90;1.60;;;;;;;;;;5057628;28;20552;-82
2023/12/12 13:23:55;;;;;;;1.90;1.60;;;;;;;;;;5058489;28;20176;-81
2023/12/12 13:27:00;;;;;;;2.67;1.33;;;;;;;;;;5057352;28;20381;-82
2023/12/12 13:30:09;;;;;;;2.63;1.40;;;;;;;;;;5056853;28;20180;-81
2023/12/12 13:33:13;;;;;;;1.73;1.37;;;;;;;;;;5059336;28;20200;-81
2023/12/12 13:36:17;;;;;;;3.33;1.40;;;;;;;;;;5058110;28;20215;-82
2023/12/12 13:39:21;;;;;;;2.83;1.30;;;;;;;;;;5058360;28;20184;-82
2023/12/12 13:42:26;;;;;;;3.93;1.67;;;;;;;;;;5057803;28;20177;-82
2023/12/12 13:45:30;;;;;;;2.10;1.57;;;;;;;;;;5056681;28;20723;-81
2023/12/12 13:48:35;;;;;;;2.60;1.60;;;;;;;;;;5045832;28;20184;-82
2023/12/12 13:51:39;;;;;;;5.00;1.97;;;;;;;;;;5045772;28;20180;-82
2023/12/12 13:54:43;;;;;;;1.93;1.47;;;;;;;;;;5056465;28;20664;-82
2023/12/12 13:57:48;;;;;;;1.53;1.13;;;;;;;;;;5057619;28;20180;-82
2023/12/12 14:00:52;;;;;;;2.17;1.30;;;;;;;;;;5057351;28;20183;-82
2023/12/12 14:03:56;;;;;;;4.00;1.60;;;;;;;;;;5056277;28;20176;-82
2023/12/12 14:07:00;;;;;;;1.67;1.27;;;;;;;;;;5056665;28;20215;-83
2023/12/12 14:10:06;;;;;;;2.70;1.53;;;;;;;;;;5044633;28;20184;-83
2023/12/12 14:13:10;;;;;;;2.37;1.53;;;;;;;;;;5044751;28;20604;-82
2023/12/12 14:16:14;;;;;;;2.47;1.50;;;;;;;;;;5055891;28;20224;-82
2023/12/12 14:19:19;;;;;;;2.67;1.80;;;;;;;;;;5056583;28;20537;-82
2023/12/12 14:22:24;;;;;;;3.77;1.90;;;;;;;;;;5056732;28;20188;-83
2023/12/12 14:25:28;;;;;;;2.80;1.60;;;;;;;;;;5055352;28;20212;-82
2023/12/12 14:28:32;;;;;;;2.23;1.60;;;;;;;;;;5055036;28;20176;-81
2023/12/12 14:31:36;;;;;;;4.70;2.40;;;;;;;;;;5056678;28;20184;-83
2023/12/12 14:34:42;;;;;;;4.67;2.60;;;;;;;;;;5057785;28;20687;-83
2023/12/12 14:37:46;;;;;;;5.73;1.80;;;;;;;;;;5059772;28;20188;-82
2023/12/12 14:40:50;;;;;;;2.20;1.67;;;;;;;;;;5048208;28;20201;-83
2023/12/12 14:43:54;;;;;;;4.20;1.97;;;;;;;;;;5059549;28;20176;-82
2023/12/12 14:47:00;;;;;;;4.77;1.90;;;;;;;;;;5059279;28;20691;-82
2023/12/12 14:50:07;;;;;;;3.63;1.80;;;;;;;;;;5047497;28;20184;-82
2023/12/12 14:53:11;;;;;;;3.13;2.23;;;;;;;;;;5048182;28;20628;-82
2023/12/12 14:56:15;;;;;;;7.23;2.17;;;;;;;;;;5060232;28;20679;-82
2023/12/12 14:59:19;;;;;;;3.43;1.90;;;;;;;;;;5060302;28;20180;-84
2023/12/12 15:02:23;;;;;;;5.77;1.90;;;;;;;;;;5048585;28;20188;-82
2023/12/12 15:05:27;;;;;;;2.97;1.80;;;;;;;;;;5059764;28;20216;-82
2023/12/12 15:08:31;;;;;;;4.57;1.90;;;;;;;;;;5047857;28;20183;-82
2023/12/12 15:11:40;;;;;;;4.03;2.00;;;;;;;;;;5058799;28;20181;-82
2023/12/12 15:14:44;;;;;;;2.90;2.20;;;;;;;;;;5047608;28;20203;-82
2023/12/12 15:17:48;;;;;;;4.30;2.33;;;;;;;;;;5059216;28;20188;-84
2023/12/12 15:20:52;;;;;;;4.70;2.23;;;;;;;;;;5059691;28;20188;-82
2023/12/12 15:23:57;;;;;;;5.23;2.40;;;;;;;;;;5059257;28;20609;-83
2023/12/12 15:27:02;;;;;;;6.57;2.80;;;;;;;;;;5059268;28;20619;-83
2023/12/12 15:30:06;;;;;;;5.80;2.80;;;;;;;;;;5059596;28;20247;-83
2023/12/12 15:33:11;;;;;;;6.97;3.00;;;;;;;;;;5060182;28;20180;-82
2023/12/12 15:36:14;;;;;;;3.93;2.67;;;;;;;;;;5059360;28;20208;-83
2023/12/12 15:39:20;;;;;;;7.47;3.60;;;;;;;;;;5058409;28;20184;-82
2023/12/12 15:42:24;;;;;;;3.50;2.63;;;;;;;;;;5058620;28;20180;-82
2023/12/12 15:45:28;;;;;;;6.27;3.07;;;;;;;;;;5057997;28;20211;-82
2023/12/12 15:48:33;;;;;;;5.67;2.93;;;;;;;;;;5046958;28;20180;-82
2023/12/12 15:51:37;;;;;;;5.03;2.97;;;;;;;;;;5059572;28;20192;-83
2023/12/12 15:54:42;;;;;;;8.73;3.63;;;;;;;;;;5058317;28;20212;-83
2023/12/12 15:57:46;;;;;;;5.53;3.80;;;;;;;;;;5058345;28;20537;-82
2023/12/12 16:00:50;;;;;;;7.13;3.97;;;;;;;;;;5058295;28;20176;-83
2023/12/12 16:03:57;;;;;;;7.23;4.10;;;;;;;;;;5046782;28;20180;-82
2023/12/12 16:07:02;;;;;;;6.87;3.87;;;;;;;;;;5058059;28;20254;-82
2023/12/12 16:10:08;;;;;;;6.17;4.70;;;;;;;;;;5046586;28;20626;-82
2023/12/12 16:13:12;;;;;;;9.80;5.23;;;;;;;;;;5046650;28;20188;-83
2023/12/12 16:16:16;;;;;;;8.73;5.80;;;;;;;;;;5058251;28;20208;-82
2023/12/12 16:19:24;;;;;;;6.97;5.83;;;;;;;;;;5058983;28;20184;-83
2023/12/12 16:22:29;;;;;;;6.23;5.47;;;;;;;;;;5058693;28;20181;-82
2023/12/12 16:25:33;;;;;;;9.50;6.87;;;;;;;;;;5057974;28;20212;-83
2023/12/12 16:28:37;;;;;;;7.90;5.73;;;;;;;;;;5057639;28;20184;-83
2023/12/12 16:31:41;;;;;;;7.67;5.97;;;;;;;;;;5057860;28;20629;-82
2023/12/12 16:34:46;;;;;;;8.07;5.67;;;;;;;;;;5058685;28;20212;-82
2023/12/12 16:37:50;;;;;;;7.40;5.90;;;;;;;;;;5035032;28;20180;-82
2023/12/12 16:40:55;;;;;;;7.93;5.40;;;;;;;;;;5057610;28;20632;-83
2023/12/12 16:43:59;;;;;;;7.43;4.90;;;;;;;;;;5046836;28;20176;-84
2023/12/12 16:47:03;;;;;;;6.90;4.70;;;;;;;;;;5046005;28;20691;-84
2023/12/12 16:50:10;;;;;;;5.47;4.20;;;;;;;;;;5047446;28;20188;-83
2023/12/12 16:53:14;;;;;;;6.43;5.10;;;;;;;;;;5058533;28;20629;-82
2023/12/12 16:56:18;;;;;;;4.23;3.83;;;;;;;;;;5058136;28;20216;-82
2023/12/12 16:59:22;;;;;;;5.73;3.80;;;;;;;;;;5057423;28;20188;-82
2023/12/12 17:02:26;;;;;;;4.73;3.90;;;;;;;;;;5057683;28;20180;-82
2023/12/12 17:05:31;;;;;;;5.67;4.10;;;;;;;;;;5058038;28;20212;-82
2023/12/12 17:08:36;;;;;;;6.13;4.50;;;;;;;;;;5058521;28;20180;-82
2023/12/12 17:11:41;;;;;;;6.27;4.30;;;;;;;;;;5057878;28;20180;-83
2023/12/12 17:14:45;;;;;;;7.23;5.30;;;;;;;;;;5045480;28;20204;-82
2023/12/12 17:17:49;;;;;;;8.43;5.70;;;;;;;;;;5056914;28;20553;-80
2023/12/12 17:20:53;;;;;;;6.37;5.37;;;;;;;;;;5056383;28;20180;-81
2023/12/12 17:23:57;;;;;;;7.23;5.57;;;;;;;;;;5056461;28;20181;-81
2023/12/12 17:27:02;;;;;;;6.37;5.00;;;;;;;;;;5058052;28;20223;-82
2023/12/12 17:30:09;;;;;;;5.47;4.43;;;;;;;;;;5057934;28;20184;-82
2023/12/12 17:33:15;;;;;;;5.87;4.97;;;;;;;;;;5057395;28;20176;-82
2023/12/12 17:36:19;;;;;;;5.67;4.87;;;;;;;;;;5056739;28;20208;-82
2023/12/12 17:39:23;;;;;;;6.47;4.60;;;;;;;;;;5056116;28;20184;-81
2023/12/12 17:42:29;;;;;;;95.50;25.50;;;;;;;;;;5056522;28;20184;-80
2023/12/12 17:45:34;;;;;;;98.07;28.33;;;;;;;;;;5067261;28;20219;-83
2023/12/12 17:48:41;;;;;;;8.10;5.37;;;;;;;;;;5067406;28;20279;-82
2023/12/12 17:51:46;;;;;;;5.77;4.20;;;;;;;;;;5056593;28;20637;-81
2023/12/12 17:54:51;;;;;;;4.07;3.50;;;;;;;;;;5055669;28;20208;-81
2023/12/12 17:57:55;;;;;;;3.90;3.13;;;;;;;;;;5044406;28;20180;-81
2023/12/12 18:00:59;;;;;;;4.67;3.40;;;;;;;;;;5044156;28;20180;-80
2023/12/12 18:04:03;;;;;;;4.80;3.50;;;;;;;;;;5032670;28;20184;-80
2023/12/12 18:07:07;;;;;;;3.90;3.17;;;;;;;;;;5057324;28;20224;-82
2023/12/12 18:10:12;;;;;;;4.27;3.07;;;;;;;;;;5055743;28;20180;-83
2023/12/12 18:13:16;;;;;;;8.07;3.37;;;;;;;;;;5055544;28;20177;-81
2023/12/12 18:16:21;;;;;;;3.80;3.23;;;;;;;;;;5056967;28;20228;-82
2023/12/12 18:19:25;;;;;;;5.37;3.77;;;;;;;;;;5056872;28;20657;-81
2023/12/12 18:22:29;;;;;;;4.00;3.17;;;;;;;;;;5056904;28;20176;-81
2023/12/12 18:25:39;;;;;;;4.40;3.97;;;;;;;;;;5043700;28;20211;-84
2023/12/12 18:28:46;;;;;;;3.70;3.23;;;;;;;;;;5044329;28;20188;-81